Vancouver, WA

3:23 AM PDT on August 30, 2015 (GMT -0700)
Hazel Dell/W7BP | | Change Station
CLOSE
Current Station
Personal Weather Station
Location: Vancouver, WA
Elevation: 157 ft
Nearby Weather Stations

Elev 157 ft 45.67 °N, 122.67 °W | Updated 5 seconds ago

Overcast
Overcast
60.8 °F
Feels Like 60.8 °F
N
0.4
Wind Variable Wind from SW
Gusts 1.8 mph

Today
High -- | Low -- °F
--% Chance of Precip.
Yesterday
High -- | Low -- °F
Precip. -- in
6:29 AM 7:52 PM
Full, 99% visible
Pressure 29.83 in
Visibility 10.0 miles
Clouds Few 1700 ft
Overcast 7500 ft
Dew Point 56 °F
Humidity 84%
Rainfall 0.18 in
Snow Depth Not available.
UV 0 out of 12
Pollen .20 out of 12
Air Quality Not available.
Flu Activity Not available.
METAR KVUO 300953Z AUTO 00000KT 10SM -RA FEW017 OVC075 16/14 A2983 RMK AO2 SLP101 P0009 T01610144
Pressure 29.83 in
Visibility 10.0 miles
Clouds Few 1700 ft
Overcast 7500 ft
Dew Point 56 °F
Humidity 84%
Rainfall 0.18 in
Snow Depth Not available.
UV 0 out of 12
Pollen .20 out of 12
Air Quality Not available.
Flu Activity Not available.
METAR KVUO 300953Z AUTO 00000KT 10SM -RA FEW017 OVC075 16/14 A2983 RMK AO2 SLP101 P0009 T01610144

10-Day Weather Forecast

×

Almanac

Astronomy

Aug. 30, 2015 Rise Set
Actual Time
Civil Twilight
Nautical Twilight
Astronomical Twilight
Moon
Length of Visible Light
Length of Day
Tomorrow will be .
, % of the Moon is Illuminated

Today's Extremes

State Highs State Lows

Community

WunderPhotos

Upload Photos

1,850,923 photos uploaded!

WunderBlogs® & News

Nearby

Air Quality

  Air Quality AQ Index Pollutant
Not available.

Snow Depth

Station Depth Elevation

Earthquake Activity

City Distance Mag. Time & Date
Minimum magnitude displayed is 2.5.

Coastal Water Temperatures

Place Temperature

Stations

Nearby Weather Stations

Station Location Temp. Windchill Dew Point Humidity Wind Precip. Elev Updated Type